Aviation Digital Data Service (ADDS)

Output produced by METARs form (0534 UTC 26 February 2017)
found at http://aviationweather.gov/adds/metars/
 
KRIC 260100Z 2601/2624 32017G23KT P6SM BKN070 
     FM260500 30008KT P6SM SKC 
     FM261000 28004KT P6SM SKC 
     FM261500 29008KT P6SM SKC